Main page
METAR-TAF:

METAR-TAF

Airports :

Sanandaj Airport

Sanandaj, Iran

latitude: 35-20N, longitude: 047-00E, elevation: 1373 m

Current weather observation

The report was made 1 hour and 5 minutes ago, at 09:00 UTC
Wind 17 kt from the South with gusts up to 30 kt
Temperature 30°C
Humidity 13%
Pressure 1014 hPa
Visibility 10 km or more
Few clouds at a height of 4000 ft

METAR: OICS 240900Z 18017G30KT 9999 FEW040 30/M01 Q1014 A2994

Time: 13:35 (10:05 UTC)


TAF: missing

Weather observations and forecasts of more than 4000 airports (METAR and TAF reports).

The available stations are represented by yellow and red dots on the map.

Hover mouse over dot to see the name of the station.

Then click to see weather observations and forecasts.

To change the map : click on the green buttons with a black cross to zoom in, on the green button with a dash to zoom out, or on the green arrows for adjacent maps.


METAR-TAF: